createdAt,value
2018-06-05T00:00:34.974Z,98755.37
2018-06-05T00:03:04.067Z,98755.55
2018-06-05T00:05:33.240Z,98755.23
2018-06-05T00:08:02.287Z,98754.20
2018-06-05T00:10:31.275Z,98757.00
2018-06-05T00:13:00.238Z,98752.31
2018-06-05T00:15:29.370Z,98752.31
2018-06-05T00:17:58.546Z,98744.94
2018-06-05T00:20:27.984Z,98738.19
2018-06-05T00:22:56.960Z,98742.55
2018-06-05T00:25:26.151Z,98740.88
2018-06-05T00:27:55.189Z,98743.08
2018-06-05T00:30:24.309Z,98742.59
2018-06-05T00:32:53.338Z,98741.72
2018-06-05T00:35:22.920Z,98745.74
2018-06-05T00:37:52.080Z,98741.05
2018-06-05T00:40:21.119Z,98742.39
2018-06-05T00:42:50.693Z,98747.92
2018-06-05T00:45:19.624Z,98737.52
2018-06-05T00:47:48.734Z,98737.52
2018-06-05T00:50:17.912Z,98735.02
2018-06-05T00:52:47.038Z,98735.69
2018-06-05T00:55:16.019Z,98739.03
2018-06-05T00:57:45.196Z,98731.83
2018-06-05T01:00:14.178Z,98728.13
2018-06-05T01:02:43.380Z,98733.33
2018-06-05T01:05:12.473Z,98733.16
2018-06-05T01:07:41.555Z,98725.59
2018-06-05T01:10:10.560Z,98727.91
2018-06-05T01:12:40.221Z,98733.61
2018-06-05T01:15:09.214Z,98738.30
2018-06-05T01:17:38.249Z,98735.95
2018-06-05T01:20:07.932Z,98731.59
2018-06-05T01:22:36.832Z,98732.86
2018-06-05T01:25:05.950Z,98737.89
2018-06-05T01:27:35.372Z,98735.50
2018-06-05T01:30:04.427Z,98731.42
2018-06-05T01:32:33.459Z,98732.26
2018-06-05T01:35:02.986Z,98733.44
2018-06-05T01:37:32.013Z,98741.30
2018-06-05T01:40:01.134Z,98746.11
2018-06-05T01:42:30.665Z,98743.55
2018-06-05T01:44:59.699Z,98729.14
2018-06-05T01:47:28.838Z,98730.81
2018-06-05T01:49:57.988Z,98720.88
2018-06-05T01:52:27.021Z,98727.80
2018-06-05T01:54:56.155Z,98729.36
2018-06-05T01:57:25.528Z,98725.63
2018-06-05T01:59:54.607Z,98729.26
2018-06-05T02:02:23.523Z,98734.09
2018-06-05T02:04:52.983Z,98734.38
2018-06-05T02:07:22.106Z,98742.91
2018-06-05T02:09:51.108Z,98747.25
2018-06-05T02:12:20.100Z,98750.55
2018-06-05T02:14:49.046Z,98743.73
2018-06-05T02:17:18.111Z,98745.92
2018-06-05T02:19:47.156Z,98748.94
2018-06-05T02:22:16.127Z,98742.39
2018-06-05T02:24:45.116Z,98746.92
2018-06-05T02:27:14.044Z,98753.28
2018-06-05T02:29:43.390Z,98750.63
2018-06-05T02:32:12.431Z,98737.66
2018-06-05T02:34:41.419Z,98754.56
2018-06-05T02:37:10.510Z,98752.52
2018-06-05T02:39:39.482Z,98753.28
2018-06-05T02:42:08.476Z,98758.95
2018-06-05T02:44:37.879Z,98758.28
2018-06-05T02:47:06.891Z,98757.59
2018-06-05T02:49:35.911Z,98764.47
2018-06-05T02:52:05.379Z,98754.19
2018-06-05T02:54:34.280Z,98758.38
2018-06-05T02:57:03.217Z,98758.69
2018-06-05T02:59:32.799Z,98754.84
2018-06-05T03:02:01.824Z,98764.42
2018-06-05T03:04:30.876Z,98765.89
2018-06-05T03:07:00.323Z,98775.11
2018-06-05T03:09:29.278Z,98758.38
2018-06-05T03:11:58.444Z,98764.27
2018-06-05T03:14:27.997Z,98768.09
2018-06-05T03:16:57.013Z,98765.93
2018-06-05T03:19:26.016Z,98768.00
2018-06-05T03:21:55.031Z,98767.73
2018-06-05T03:24:24.121Z,98763.09
2018-06-05T03:26:53.122Z,98759.30
2018-06-05T03:29:22.332Z,98756.83
2018-06-05T03:31:51.348Z,98762.20
2018-06-05T03:34:20.495Z,98766.00
2018-06-05T03:36:50.247Z,98770.22
2018-06-05T03:39:19.188Z,98767.16
2018-06-05T03:41:48.336Z,98766.06
2018-06-05T03:44:17.943Z,98769.30
2018-06-05T03:46:46.913Z,98769.50
2018-06-05T03:49:16.747Z,98768.70
2018-06-05T03:51:46.099Z,98778.28
2018-06-05T03:54:15.167Z,98787.69
2018-06-05T03:56:44.170Z,98785.48
2018-06-05T03:59:13.267Z,98785.63
2018-06-05T04:01:42.233Z,98783.23
2018-06-05T04:04:11.174Z,98790.66
2018-06-05T04:06:40.338Z,98787.73
2018-06-05T04:09:09.446Z,98784.12
2018-06-05T04:11:38.420Z,98782.85
2018-06-05T04:14:07.992Z,98773.39
2018-06-05T04:16:37.036Z,98775.27
2018-06-05T04:19:06.239Z,98780.78
2018-06-05T04:21:35.215Z,98778.73
2018-06-05T04:24:04.310Z,98767.11
2018-06-05T04:26:33.511Z,98770.13
2018-06-05T04:29:02.514Z,98769.50
2018-06-05T04:31:31.649Z,98772.88
2018-06-05T04:34:00.716Z,98769.22
2018-06-05T04:36:30.375Z,98773.02
2018-06-05T04:38:59.401Z,98768.96
2018-06-05T04:41:28.388Z,98775.09
2018-06-05T04:43:57.810Z,98782.88
2018-06-05T04:46:26.782Z,98780.88
2018-06-05T04:48:55.963Z,98784.68
2018-06-05T04:51:25.303Z,98784.75
2018-06-05T04:53:54.278Z,98778.71
2018-06-05T04:56:23.408Z,98785.31
2018-06-05T04:58:52.982Z,98788.02
2018-06-05T05:01:21.896Z,98785.98
2018-06-05T05:03:50.992Z,98786.03
2018-06-05T05:06:20.040Z,98789.00
2018-06-05T05:08:49.083Z,98787.16
2018-06-05T05:11:18.642Z,98785.04
2018-06-05T05:13:48.145Z,98785.03
2018-06-05T05:16:17.089Z,98783.47
2018-06-05T05:18:46.285Z,98780.55
2018-06-05T05:21:15.823Z,98785.55
2018-06-05T05:23:44.688Z,98780.28
2018-06-05T05:26:13.656Z,98781.31
2018-06-05T05:28:43.127Z,98782.77
2018-06-05T05:31:12.179Z,98776.25
2018-06-05T05:33:41.198Z,98786.06
2018-06-05T05:36:10.376Z,98791.44
2018-06-05T05:38:39.250Z,98781.53
2018-06-05T05:41:08.216Z,98785.61
2018-06-05T05:43:37.916Z,98795.08
2018-06-05T05:46:07.024Z,98793.62
2018-06-05T05:48:36.167Z,98797.27
2018-06-05T05:51:05.212Z,98798.41
2018-06-05T05:53:34.446Z,98791.35
2018-06-05T05:56:03.352Z,98795.20
2018-06-05T05:58:33.027Z,98792.76
2018-06-05T06:01:01.917Z,98786.48
2018-06-05T06:03:30.812Z,98793.53
2018-06-05T06:05:59.676Z,98794.77
2018-06-05T06:08:28.553Z,98797.98
2018-06-05T06:10:57.477Z,98800.98
2018-06-05T06:13:26.804Z,98805.39
2018-06-05T06:15:55.872Z,98806.36
2018-06-05T06:18:24.841Z,98804.01
2018-06-05T06:20:54.230Z,98806.13
2018-06-05T06:23:23.211Z,98806.70
2018-06-05T06:25:52.292Z,98809.28
2018-06-05T06:28:21.639Z,98816.51
2018-06-05T06:30:50.720Z,98813.97
2018-06-05T06:33:19.854Z,98816.27
2018-06-05T06:35:48.917Z,98813.34
2018-06-05T06:38:17.916Z,98804.52
2018-06-05T06:40:46.796Z,98806.36
2018-06-05T06:43:15.743Z,98801.41
2018-06-05T06:45:44.898Z,98800.49
2018-06-05T06:54:58.651Z,98798.72
2018-06-05T06:57:27.725Z,98797.78
2018-06-05T06:59:56.862Z,98794.41
2018-06-05T07:02:26.226Z,98791.87
2018-06-05T07:04:55.273Z,98788.46
2018-06-05T07:07:24.231Z,98784.72
2018-06-05T07:09:53.512Z,98787.15
2018-06-05T07:12:22.470Z,98785.75
2018-06-05T07:14:51.558Z,98785.60
2018-06-05T07:17:20.691Z,98778.49
2018-06-05T07:19:49.734Z,98776.80
2018-06-05T07:22:18.866Z,98781.94
2018-06-05T07:24:47.984Z,98774.02
2018-06-05T07:27:17.039Z,98774.20
2018-06-05T07:29:46.107Z,98774.84
2018-06-05T07:32:16.060Z,98765.13
2018-06-05T07:34:45.077Z,98774.20
2018-06-05T07:37:14.177Z,98768.16
2018-06-05T07:39:43.822Z,98771.91
2018-06-05T07:42:12.700Z,98769.50
2018-06-05T07:44:41.813Z,98768.97
2018-06-05T07:47:11.102Z,98769.47
2018-06-05T07:49:40.096Z,98766.34
2018-06-05T07:52:09.199Z,98765.91
2018-06-05T07:54:38.387Z,98768.94
2018-06-05T07:57:07.369Z,98765.94
2018-06-05T07:59:36.418Z,98765.31
2018-06-05T08:02:05.654Z,98762.23
2018-06-05T08:04:34.598Z,98762.09
2018-06-05T08:07:03.758Z,98758.31
2018-06-05T08:09:32.911Z,98755.69
2018-06-05T08:12:01.940Z,98758.34
2018-06-05T08:14:31.016Z,98755.44
2018-06-05T08:17:00.605Z,98749.69
2018-06-05T08:19:29.684Z,98752.66
2018-06-05T08:21:58.676Z,98746.52
2018-06-05T08:24:27.801Z,98744.68
2018-06-05T08:26:56.915Z,98751.05
2018-06-05T08:29:26.005Z,98750.77
2018-06-05T08:31:55.154Z,98747.00
2018-06-05T08:34:24.120Z,98739.00
2018-06-05T08:36:53.267Z,98738.50
2018-06-05T08:39:22.877Z,98736.14
2018-06-05T08:41:51.841Z,98741.03
2018-06-05T08:44:20.850Z,98733.94
2018-06-05T08:46:50.140Z,98739.26
2018-06-05T08:49:19.278Z,98740.66
2018-06-05T08:51:48.258Z,98742.27
2018-06-05T08:54:17.519Z,98745.59
2018-06-05T08:56:46.513Z,98741.59
2018-06-05T08:59:15.420Z,98731.45
2018-06-05T09:01:44.483Z,98728.19
2018-06-05T09:04:13.487Z,98731.52
2018-06-05T09:06:42.742Z,98733.19
2018-06-05T09:09:11.925Z,98735.01
2018-06-05T09:11:41.005Z,98728.64
2018-06-05T09:14:10.076Z,98723.55
2018-06-05T09:16:39.146Z,98724.72
2018-06-05T09:19:08.299Z,98721.77
2018-06-05T09:21:37.307Z,98727.81
2018-06-05T09:24:06.488Z,98721.66
2018-06-05T09:26:35.460Z,98710.34
2018-06-05T09:29:04.404Z,98714.35
2018-06-05T09:31:33.516Z,98710.88
2018-06-05T09:34:02.585Z,98703.73
2018-06-05T09:36:31.608Z,98702.38
2018-06-05T09:39:00.856Z,98708.45
2018-06-05T09:41:29.858Z,98697.16
2018-06-05T09:43:58.946Z,98698.66
2018-06-05T09:46:28.495Z,98696.34
2018-06-05T09:48:57.527Z,98693.78
2018-06-05T09:51:26.624Z,98689.05
2018-06-05T09:53:56.062Z,98694.80
2018-06-05T09:56:25.076Z,98695.92
2018-06-05T09:58:54.048Z,98686.61
2018-06-05T10:01:23.148Z,98683.84
2018-06-05T10:03:52.077Z,98684.73
2018-06-05T10:06:20.953Z,98682.94
2018-06-05T10:08:50.394Z,98682.87
2018-06-05T10:11:20.465Z,98674.81
2018-06-05T10:13:49.514Z,98661.20
2018-06-05T10:16:18.682Z,98667.37
2018-06-05T10:18:47.734Z,98665.41
2018-06-05T10:21:16.710Z,98659.70
2018-06-05T10:23:45.740Z,98647.67
2018-06-05T10:26:14.772Z,98654.73
2018-06-05T10:28:43.846Z,98644.44
2018-06-05T10:31:13.061Z,98635.59
2018-06-05T10:33:42.006Z,98625.77
2018-06-05T10:36:11.184Z,98644.67
2018-06-05T10:38:40.729Z,98623.97
2018-06-05T10:41:09.773Z,98631.93
2018-06-05T10:43:38.870Z,98636.63
2018-06-05T10:46:07.996Z,98630.70
2018-06-05T10:48:37.067Z,98646.92
2018-06-05T10:51:06.168Z,98630.41
2018-06-05T10:53:35.730Z,98622.08
2018-06-05T10:56:04.733Z,98616.33
2018-06-05T10:58:33.843Z,98609.20
2018-06-05T11:01:02.882Z,98617.44
2018-06-05T11:03:32.006Z,98609.97
2018-06-05T11:06:01.111Z,98603.70
2018-06-05T11:08:30.222Z,98601.03
2018-06-05T11:10:59.215Z,98597.57
2018-06-05T11:13:28.133Z,98595.46
2018-06-05T11:15:57.568Z,98587.74
2018-06-05T11:18:26.556Z,98587.56
2018-06-05T11:20:55.565Z,98575.92
2018-06-05T11:23:24.828Z,98581.50
2018-06-05T11:25:53.952Z,98586.67
2018-06-05T11:28:23.010Z,98577.57
2018-06-05T11:30:52.328Z,98578.82
2018-06-05T11:33:21.265Z,98577.55
2018-06-05T11:35:50.410Z,98564.66
2018-06-05T11:38:19.825Z,98563.08
2018-06-05T11:40:48.868Z,98557.00
2018-06-05T11:43:17.914Z,98564.95
2018-06-05T11:45:47.042Z,98556.63
2018-06-05T11:48:16.185Z,98549.39
2018-06-05T11:50:45.036Z,98547.19
2018-06-05T11:53:14.150Z,98541.34
2018-06-05T11:55:43.174Z,98542.30
2018-06-05T11:58:12.252Z,98528.44
2018-06-05T12:00:41.393Z,98540.07
2018-06-05T12:03:10.389Z,98529.48
2018-06-05T12:05:39.443Z,98528.69
2018-06-05T12:08:09.110Z,98534.52
2018-06-05T12:10:38.001Z,98546.58
2018-06-05T12:13:07.063Z,98537.55
2018-06-05T12:15:36.600Z,98532.65
2018-06-05T12:18:05.661Z,98543.59
2018-06-05T12:20:34.726Z,98542.61
2018-06-05T12:23:05.128Z,98543.34
2018-06-05T12:25:34.181Z,98539.25
2018-06-05T12:28:03.191Z,98545.28
2018-06-05T12:30:32.314Z,98546.27
2018-06-05T12:33:01.455Z,98548.05
2018-06-05T12:35:30.504Z,98547.03
2018-06-05T12:37:59.566Z,98540.66
2018-06-05T12:40:28.691Z,98549.15
2018-06-05T12:42:57.661Z,98538.98
2018-06-05T12:45:26.950Z,98533.56
2018-06-05T12:47:56.016Z,98525.30
2018-06-05T12:50:25.041Z,98523.48
2018-06-05T12:52:54.281Z,98530.00
2018-06-05T12:55:23.424Z,98525.81
2018-06-05T12:57:52.529Z,98522.98
2018-06-05T13:00:21.914Z,98514.89
2018-06-05T13:02:50.853Z,98510.28
2018-06-05T13:05:19.807Z,98504.81
2018-06-05T13:07:49.188Z,98499.17
2018-06-05T13:10:18.125Z,98510.16
2018-06-05T13:12:47.258Z,98507.07
2018-06-05T13:15:16.352Z,98486.55
2018-06-05T13:17:45.397Z,98486.61
2018-06-05T13:20:14.237Z,98492.11
2018-06-05T13:23:46.422Z,98491.42
2018-06-05T13:26:15.362Z,98488.97
2018-06-05T13:28:44.377Z,98488.36
2018-06-05T13:31:13.412Z,98508.84
2018-06-05T13:33:42.477Z,98507.67
2018-06-05T13:36:11.564Z,98502.94
2018-06-05T13:38:40.696Z,98516.95
2018-06-05T13:41:09.740Z,98529.00
2018-06-05T13:43:38.916Z,98530.01
2018-06-05T13:46:08.277Z,98535.20
2018-06-05T13:48:37.241Z,98534.84
2018-06-05T13:51:06.440Z,98541.37
2018-06-05T13:53:35.793Z,98545.47
2018-06-05T13:56:04.932Z,98548.20
2018-06-05T13:58:33.988Z,98553.41
2018-06-05T14:01:03.101Z,98553.95
2018-06-05T14:03:32.171Z,98553.13
2018-06-05T14:06:01.337Z,98559.25
2018-06-05T14:08:30.428Z,98549.12
2018-06-05T14:10:59.500Z,98573.15
2018-06-05T14:13:28.496Z,98569.25
2018-06-05T14:15:57.754Z,98576.45
2018-06-05T14:18:26.664Z,98576.45
2018-06-05T14:20:55.830Z,98576.17
2018-06-05T14:23:25.030Z,98588.75
2018-06-05T14:25:54.060Z,98586.66
2018-06-05T14:28:23.191Z,98587.06
2018-06-05T14:30:52.553Z,98594.67
2018-06-05T14:33:21.598Z,98593.48
2018-06-05T14:35:50.618Z,98606.27
2018-06-05T14:38:19.704Z,98605.34
2018-06-05T14:40:48.719Z,98606.77
2018-06-05T14:43:17.589Z,98611.92
2018-06-05T14:45:46.906Z,98621.48
2018-06-05T14:48:16.072Z,98635.69
2018-06-05T14:50:45.160Z,98637.73
2018-06-05T14:53:14.366Z,98632.48
2018-06-05T14:55:43.556Z,98639.43
2018-06-05T14:58:12.602Z,98647.22
2018-06-05T15:00:42.283Z,98644.94
2018-06-05T15:03:11.239Z,98648.42
2018-06-05T15:05:40.423Z,98654.14
2018-06-05T15:08:09.751Z,98644.73
2018-06-05T15:10:38.602Z,98638.05
2018-06-05T15:13:07.606Z,98644.39
2018-06-05T15:15:37.032Z,98630.75
2018-06-05T15:18:06.158Z,98627.84
2018-06-05T15:20:34.951Z,98636.69
2018-06-05T15:23:04.011Z,98634.85
2018-06-05T15:25:33.161Z,98637.14
2018-06-05T15:28:02.241Z,98642.25
2018-06-05T15:30:31.598Z,98637.55
2018-06-05T15:33:00.506Z,98642.72
2018-06-05T15:35:29.432Z,98638.75
2018-06-05T15:37:59.057Z,98642.50
2018-06-05T15:40:28.039Z,98637.97
2018-06-05T15:42:57.137Z,98641.59
2018-06-05T15:45:26.506Z,98642.05
2018-06-05T15:47:55.614Z,98650.42
2018-06-05T15:50:24.563Z,98655.62
2018-06-05T15:52:54.043Z,98661.67
2018-06-05T15:55:23.128Z,98663.73
2018-06-05T15:57:52.025Z,98667.94
2018-06-05T16:00:21.118Z,98672.18
2018-06-05T16:02:50.154Z,98679.20
2018-06-05T16:05:19.326Z,98689.98
2018-06-05T16:07:48.442Z,98695.81
2018-06-05T16:10:17.663Z,98691.79
2018-06-05T16:12:46.856Z,98694.70
2018-06-05T16:15:16.480Z,98695.58
2018-06-05T16:17:45.424Z,98683.62
2018-06-05T16:20:14.592Z,98692.80
2018-06-05T16:22:44.172Z,98694.59
2018-06-05T16:25:13.129Z,98696.66
2018-06-05T16:27:42.287Z,98695.78
2018-06-05T16:30:11.654Z,98707.33
2018-06-05T16:32:40.721Z,98707.33
2018-06-05T16:35:09.730Z,98702.61
2018-06-05T16:37:39.168Z,98705.63
2018-06-05T16:40:08.140Z,98704.88
2018-06-05T16:42:37.189Z,98708.69
2018-06-05T16:45:06.285Z,98706.70
2018-06-05T16:47:35.463Z,98713.97
2018-06-05T16:50:04.480Z,98719.66
2018-06-05T16:52:33.494Z,98715.88
2018-06-05T16:55:02.412Z,98709.89
2018-06-05T16:57:31.247Z,98712.84
2018-06-05T17:00:00.308Z,98720.63
2018-06-05T17:02:29.293Z,98719.81
2018-06-05T17:04:58.194Z,98724.50
2018-06-05T17:07:27.637Z,98729.19
2018-06-05T17:09:56.581Z,98730.86
2018-06-05T17:12:25.694Z,98723.36
2018-06-05T17:14:55.130Z,98727.84
2018-06-05T17:17:24.042Z,98735.98
2018-06-05T17:19:53.031Z,98739.52
2018-06-05T17:22:22.622Z,98739.91
2018-06-05T17:24:51.854Z,98736.89
2018-06-05T17:27:20.932Z,98739.25
2018-06-05T17:29:50.522Z,98735.53
2018-06-05T17:32:19.454Z,98734.88
2018-06-05T17:34:48.572Z,98733.69
2018-06-05T17:37:17.994Z,98731.61
2018-06-05T17:39:47.027Z,98728.37
2018-06-05T17:42:15.968Z,98724.48
2018-06-05T17:44:45.513Z,98733.64
2018-06-05T17:47:14.480Z,98734.74
2018-06-05T17:49:43.448Z,98742.96
2018-06-05T17:52:12.955Z,98741.63
2018-06-05T17:54:41.864Z,98742.91
2018-06-05T17:57:10.793Z,98749.42
2018-06-05T17:59:39.911Z,98743.73
2018-06-05T18:02:08.980Z,98740.62
2018-06-05T18:04:38.131Z,98744.61
2018-06-05T18:07:07.499Z,98742.73
2018-06-05T18:09:36.480Z,98748.39
2018-06-05T18:12:05.599Z,98747.28
2018-06-05T18:14:35.008Z,98754.50
2018-06-05T18:17:03.940Z,98757.45
2018-06-05T18:19:33.032Z,98758.16
2018-06-05T18:22:02.467Z,98762.02
2018-06-05T18:24:31.448Z,98770.41
2018-06-05T18:27:00.404Z,98773.31
2018-06-05T18:29:29.350Z,98777.53
2018-06-05T18:31:58.248Z,98780.63
2018-06-05T18:34:27.237Z,98792.06
2018-06-05T18:36:56.634Z,98792.84
2018-06-05T18:39:25.601Z,98798.88
2018-06-05T18:41:54.740Z,98804.98
2018-06-05T18:44:23.800Z,98811.23
2018-06-05T18:46:52.972Z,98812.27
2018-06-05T18:49:21.864Z,98816.95
2018-06-05T18:51:51.230Z,98818.14
2018-06-05T18:54:20.122Z,98825.77
2018-06-05T18:56:49.236Z,98834.26
2018-06-05T18:59:18.764Z,98844.45
2018-06-05T19:01:47.759Z,98845.55
2018-06-05T19:04:16.726Z,98856.54
2018-06-05T19:06:45.852Z,98863.06
2018-06-05T19:09:14.878Z,98865.31
2018-06-05T19:11:44.044Z,98867.01
2018-06-05T19:14:13.483Z,98868.47
2018-06-05T19:16:42.587Z,98878.89
2018-06-05T19:19:11.736Z,98876.38
2018-06-05T19:21:40.823Z,98882.51
2018-06-05T19:24:09.843Z,98884.38
2018-06-05T19:26:38.853Z,98884.75
2018-06-05T19:29:08.640Z,98887.72
2018-06-05T19:31:37.564Z,98882.91
2018-06-05T19:34:06.612Z,98887.20
2018-06-05T19:36:35.583Z,98889.91
2018-06-05T19:39:06.153Z,98889.30
2018-06-05T19:41:35.262Z,98891.64
2018-06-05T19:44:04.388Z,98887.42
2018-06-05T19:46:33.310Z,98893.38
2018-06-05T19:49:02.228Z,98894.92
2018-06-05T19:51:31.673Z,98891.77
2018-06-05T19:54:00.638Z,98888.93
2018-06-05T19:56:30.090Z,98888.77
2018-06-05T19:58:59.289Z,98887.92
2018-06-05T20:01:28.365Z,98890.16
2018-06-05T20:03:57.442Z,98896.20
2018-06-05T20:06:26.847Z,98900.99
2018-06-05T20:08:55.701Z,98906.11
2018-06-05T20:11:24.668Z,98900.95
2018-06-05T20:13:53.735Z,98908.76
2018-06-05T20:16:22.751Z,98914.03
2018-06-05T20:18:51.728Z,98913.67
2018-06-05T20:21:20.602Z,98914.19
2018-06-05T20:23:49.493Z,98916.91
2018-06-05T20:26:18.507Z,98918.95
2018-06-05T20:28:47.870Z,98918.41
2018-06-05T20:31:16.917Z,98917.35
2018-06-05T20:33:46.031Z,98919.42
2018-06-05T20:36:15.114Z,98915.38
2018-06-05T20:38:44.222Z,98914.22
2018-06-05T20:41:13.339Z,98921.10
2018-06-05T20:43:42.545Z,98920.27
2018-06-05T20:46:11.370Z,98921.83
2018-06-05T20:48:40.458Z,98925.72
2018-06-05T20:51:09.738Z,98932.01
2018-06-05T20:53:38.835Z,98928.77
2018-06-05T20:56:07.871Z,98931.38
2018-06-05T20:58:37.053Z,98930.73
2018-06-05T21:01:06.044Z,98940.67
2018-06-05T21:03:35.044Z,98938.00
2018-06-05T21:06:04.025Z,98950.80
2018-06-05T21:08:33.044Z,98958.19
2018-06-05T21:11:02.057Z,98960.57
2018-06-05T21:13:31.049Z,98961.42
2018-06-05T21:15:59.962Z,98963.93
2018-06-05T21:18:29.046Z,98964.30
2018-06-05T21:20:58.702Z,98958.72
2018-06-05T21:23:27.719Z,98959.06
2018-06-05T21:25:56.754Z,98953.51
2018-06-05T21:28:25.919Z,98959.53
2018-06-05T21:30:54.901Z,98956.71
2018-06-05T21:33:23.745Z,98957.37
2018-06-05T21:35:53.249Z,98958.37
2018-06-05T21:38:22.224Z,98967.47
2018-06-05T21:40:51.229Z,98963.61
2018-06-05T21:43:20.270Z,98961.59
2018-06-05T21:45:49.235Z,98954.70
2018-06-05T21:48:18.132Z,98951.34
2018-06-05T21:50:47.189Z,98952.19
2018-06-05T21:53:16.107Z,98951.00
2018-06-05T21:55:44.925Z,98953.38
2018-06-05T21:58:14.460Z,98958.06
2018-06-05T22:00:43.498Z,98959.91
2018-06-05T22:03:12.519Z,98959.93
2018-06-05T22:05:41.576Z,98960.92
2018-06-05T22:08:10.533Z,98960.25
2018-06-05T22:10:39.558Z,98965.30
2018-06-05T22:13:08.761Z,98973.72
2018-06-05T22:15:37.789Z,98972.67
2018-06-05T22:18:06.963Z,98968.95
2018-06-05T22:20:35.953Z,98960.88
2018-06-05T22:23:04.978Z,98967.57
2018-06-05T22:25:33.934Z,98963.84
2018-06-05T22:28:03.330Z,98972.55
2018-06-05T22:30:32.284Z,98974.57
2018-06-05T22:33:01.159Z,98981.63
2018-06-05T22:35:30.220Z,98983.97
2018-06-05T22:37:59.225Z,98980.28
2018-06-05T22:40:28.436Z,98976.95
2018-06-05T22:42:57.379Z,98975.24
2018-06-05T22:45:26.490Z,98981.75
2018-06-05T22:47:55.578Z,98975.84
2018-06-05T22:50:24.719Z,98978.15
2018-06-05T22:52:53.802Z,98981.30
2018-06-05T22:55:22.797Z,98980.13
2018-06-05T22:57:52.093Z,98993.29
2018-06-05T23:00:27.898Z,98997.92
2018-06-05T23:02:56.956Z,98997.91
2018-06-05T23:05:25.946Z,98997.57
2018-06-05T23:07:54.938Z,98996.56
2018-06-05T23:10:24.504Z,99003.78
2018-06-05T23:12:53.436Z,99005.63
2018-06-05T23:15:22.378Z,99007.25
2018-06-05T23:17:51.448Z,99006.24
2018-06-05T23:20:20.568Z,99008.92
2018-06-05T23:22:49.599Z,99015.27
2018-06-05T23:25:19.067Z,99008.55
2018-06-05T23:27:48.100Z,99007.92
2018-06-05T23:30:17.205Z,99009.42
2018-06-05T23:34:15.861Z,99016.59
2018-06-05T23:36:44.898Z,99020.97
2018-06-05T23:39:13.906Z,99020.55
2018-06-05T23:41:43.036Z,99024.56
2018-06-05T23:44:12.095Z,99024.06
2018-06-05T23:46:41.128Z,99024.50
2018-06-05T23:49:10.166Z,99024.84
2018-06-05T23:51:39.126Z,99021.64
2018-06-05T23:54:07.925Z,99018.09
2018-06-05T23:56:37.032Z,99014.19
2018-06-05T23:59:05.958Z,99018.48
